Time;durP1;ratioP1;P1;durP2;ratioP2;P2;SDS_P1;SDS_P2;PMS_P1;PMS_P2;Temp;Humidity;BMP_temperature;BMP_pressure;BME280_temperature;BME280_humidity;BME280_pressure;Samples;Min_cycle;Max_cycle;Signal;HPM_P1;HPM_P2
2022/04/03 00:03:32;;;;;;;;;;;;;;;-1.57;56.61;98990.78;8398982;28;19924;-69
2022/04/03 00:07:33;;;;;;;;;;;;;;;-1.63;56.44;98997.00;8379937;28;19920;-69
2022/04/03 00:11:34;;;;;;;;;;;;;;;-1.69;56.72;98992.63;8398441;28;20417;-68
2022/04/03 00:15:38;;;;;;;;;;;;;;;-1.71;56.73;98994.72;8399384;28;19963;-69
2022/04/03 00:19:39;;;;;;;;;;;;;;;-1.72;57.17;98993.09;8398342;28;19927;-69
2022/04/03 00:23:40;;;;;;;;;;;;;;;-1.77;57.49;98995.63;8379569;28;20026;-69
2022/04/03 00:27:41;;;;;;;;;;;;;;;-1.73;57.26;98986.19;8397602;28;19927;-69
2022/04/03 00:31:42;;;;;;;;;;;;;;;-1.80;57.41;98996.09;8398383;28;19967;-68
2022/04/03 00:35:43;;;;;;;;;;;;;;;-1.80;57.67;98996.09;8397841;28;19920;-68
2022/04/03 00:39:43;;;;;;;;;;;;;;;-1.82;57.82;98998.16;8397347;28;19920;-68
2022/04/03 00:43:44;;;;;;;;;;;;;;;-1.90;57.91;98995.84;8397319;28;19921;-68
2022/04/03 00:47:45;;;;;;;;;;;;;;;-1.97;57.68;99000.47;8397638;28;19943;-69
2022/04/03 00:51:46;;;;;;;;;;;;;;;-2.04;58.18;99010.38;8397702;28;19973;-69
2022/04/03 00:55:47;;;;;;;;;;;;;;;-2.06;58.44;99009.81;8397524;28;20010;-70
2022/04/03 00:59:50;;;;;;;;;;;;;;;-2.13;58.54;99008.06;8410401;28;19920;-69
2022/04/03 01:03:50;;;;;;;;;;;;;;;-2.16;58.34;98999.75;8396063;28;19921;-69
2022/04/03 01:07:51;;;;;;;;;;;;;;;-2.16;58.84;99008.50;8396634;28;20335;-69
2022/04/03 01:11:52;;;;;;;;;;;;;;;-2.22;58.51;99004.13;8397165;28;19977;-70
2022/04/03 01:15:54;;;;;;;;;;;;;;;-2.21;58.91;99011.03;8396188;28;19926;-69
2022/04/03 01:19:55;;;;;;;;;;;;;;;-2.29;59.53;99016.69;8360968;28;20658;-68
2022/04/03 01:23:55;;;;;;;;;;;;;;;-2.34;59.23;99019.19;8396155;28;19939;-69
2022/04/03 01:27:57;;;;;;;;;;;;;;;-2.37;59.65;99011.69;8394007;28;19927;-69
2022/04/03 01:31:58;;;;;;;;;;;;;;;-2.39;59.36;99013.78;8396246;28;20079;-69
2022/04/03 01:35:58;;;;;;;;;;;;;;;-2.39;59.50;99024.38;8396325;28;19932;-69
2022/04/03 01:39:59;;;;;;;;;;;;;;;-2.39;59.86;99029.66;8395722;28;19943;-69
2022/04/03 01:44:00;;;;;;;;;;;;;;;-2.41;59.72;99023.78;8376996;28;20003;-68
2022/04/03 01:48:01;;;;;;;;;;;;;;;-2.44;59.61;99026.88;8387872;28;19920;-69
2022/04/03 01:52:02;;;;;;;;;;;;;;;-2.49;60.02;99034.69;8393400;28;19924;-69
2022/04/03 01:56:05;;;;;;;;;;;;;;;-2.47;60.40;99032.59;8395137;28;19928;-69
2022/04/03 02:00:06;;;;;;;;;;;;;;;-2.48;60.37;99031.00;8394894;28;19928;-69
2022/04/03 02:04:07;;;;;;;;;;;;;;;-2.47;60.56;99032.59;8376547;28;19921;-69
2022/04/03 02:08:07;;;;;;;;;;;;;;;-2.49;60.61;99036.53;8394822;28;19927;-69
2022/04/03 02:12:09;;;;;;;;;;;;;;;-2.51;60.89;99047.31;8394665;28;19928;-68
2022/04/03 02:16:12;;;;;;;;;;;;;;;-2.48;61.38;99041.56;8394667;28;19920;-69
2022/04/03 02:20:13;;;;;;;;;;;;;;;-2.50;61.66;99046.28;8395125;28;19920;-69
2022/04/03 02:24:14;;;;;;;;;;;;;;;-2.48;61.92;99040.75;8375814;28;19958;-69
2022/04/03 02:28:15;;;;;;;;;;;;;;;-2.55;62.16;99043.53;8394462;28;19920;-69
2022/04/03 02:32:16;;;;;;;;;;;;;;;-2.59;62.09;99045.00;8359815;28;19920;-69
2022/04/03 02:36:17;;;;;;;;;;;;;;;-2.60;62.51;99048.69;8394217;28;19924;-69
2022/04/03 02:40:18;;;;;;;;;;;;;;;-2.63;62.52;99054.41;8394893;28;20543;-70
2022/04/03 02:44:19;;;;;;;;;;;;;;;-2.67;62.35;99058.53;8394528;28;19987;-70
2022/04/03 02:48:19;;;;;;;;;;;;;;;-2.70;63.02;99048.41;8393890;28;20066;-69
2022/04/03 02:52:20;;;;;;;;;;;;;;;-2.78;62.57;99067.22;8394512;28;20346;-69
2022/04/03 02:56:21;;;;;;;;;;;;;;;-2.83;63.02;99064.44;8394213;28;19971;-69
2022/04/03 03:00:22;;;;;;;;;;;;;;;-2.81;63.15;99067.66;8393905;28;19971;-69
2022/04/03 03:04:22;;;;;;;;;;;;;;;-2.85;63.58;99071.75;8394493;28;20099;-69
2022/04/03 03:08:23;;;;;;;;;;;;;;;-2.88;63.88;99077.50;8408535;28;20383;-69
2022/04/03 03:12:25;;;;;;;;;;;;;;;-2.92;63.68;99065.78;8391696;28;19971;-69
2022/04/03 03:16:26;;;;;;;;;;;;;;;-2.97;64.44;99078.84;8393738;28;20438;-69
2022/04/03 03:20:27;;;;;;;;;;;;;;;-3.01;64.39;99079.28;8392526;28;20050;-69
2022/04/03 03:24:27;;;;;;;;;;;;;;;-3.08;64.44;99078.56;8396130;28;20466;-69
2022/04/03 03:28:28;;;;;;;;;;;;;;;-3.12;65.41;99077.38;8399905;28;20335;-70
2022/04/03 03:32:29;;;;;;;;;;;;;;;-3.12;65.52;99082.66;8400236;28;20403;-69
2022/04/03 03:36:29;;;;;;;;;;;;;;;-3.18;65.28;99088.84;8399534;28;19964;-69
2022/04/03 03:40:30;;;;;;;;;;;;;;;-3.20;65.52;99090.06;8397813;28;19965;-69
2022/04/03 03:44:31;;;;;;;;;;;;;;;-3.23;65.78;99091.34;8399444;28;20081;-69
2022/04/03 03:48:32;;;;;;;;;;;;;;;-3.25;66.67;99088.09;8399067;28;20480;-69
2022/04/03 03:52:32;;;;;;;;;;;;;;;-3.25;66.59;99101.31;8399500;28;20503;-69
2022/04/03 03:56:33;;;;;;;;;;;;;;;-3.22;66.86;99100.84;8399089;28;19978;-70
2022/04/03 04:00:35;;;;;;;;;;;;;;;-3.15;67.93;99109.53;8397697;28;19971;-69
2022/04/03 04:04:36;;;;;;;;;;;;;;;-3.23;68.10;99112.47;8397988;28;19987;-70
2022/04/03 04:08:36;;;;;;;;;;;;;;;-3.20;68.21;99112.03;8398210;28;20022;-69
2022/04/03 04:12:39;;;;;;;;;;;;;;;-3.17;68.18;99127.41;8396828;28;19982;-69
2022/04/03 04:16:40;;;;;;;;;;;;;;;-3.16;68.17;99128.22;8398373;28;20049;-70
2022/04/03 04:20:41;;;;;;;;;;;;;;;-3.13;67.76;99125.97;8398696;28;19971;-70
2022/04/03 04:24:42;;;;;;;;;;;;;;;-3.12;67.86;99143.41;8398621;28;19991;-70
2022/04/03 04:28:47;;;;;;;;;;;;;;;-3.13;68.79;99143.66;8398401;28;19982;-70
2022/04/03 04:32:47;;;;;;;;;;;;;;;-3.21;69.10;99142.09;8398511;28;19982;-69
2022/04/03 04:36:48;;;;;;;;;;;;;;;-3.14;69.21;99152.59;8413444;28;19979;-69
2022/04/03 04:40:49;;;;;;;;;;;;;;;-3.15;69.73;99157.06;8397201;28;20389;-71
2022/04/03 04:44:50;;;;;;;;;;;;;;;-3.11;70.12;99158.25;8396785;28;19987;-70
2022/04/03 04:48:50;;;;;;;;;;;;;;;-3.01;70.14;99163.00;8396731;28;20053;-70
2022/04/03 04:52:51;;;;;;;;;;;;;;;-2.84;70.77;99168.53;8398229;28;19971;-69
2022/04/03 04:56:55;;;;;;;;;;;;;;;-2.80;70.76;99169.72;8398019;28;20498;-70
2022/04/03 05:00:56;;;;;;;;;;;;;;;-2.60;71.18;99175.59;8397616;28;19978;-70
2022/04/03 05:04:57;;;;;;;;;;;;;;;-2.61;70.65;99179.25;8397515;28;20446;-70
2022/04/03 05:08:58;;;;;;;;;;;;;;;-2.60;71.00;99186.97;8397464;28;19994;-69
2022/04/03 05:12:59;;;;;;;;;;;;;;;-2.50;70.97;99186.44;8396699;28;19981;-69
2022/04/03 05:17:00;;;;;;;;;;;;;;;-2.37;70.81;99186.25;8397069;28;19971;-70
2022/04/03 05:21:01;;;;;;;;;;;;;;;-2.28;71.13;99184.94;8395981;28;19971;-70
2022/04/03 05:25:04;;;;;;;;;;;;;;;-2.24;70.70;99194.03;8378287;28;20512;-71
2022/04/03 05:29:05;;;;;;;;;;;;;;;-2.28;70.93;99198.16;8396901;28;19975;-70
2022/04/03 05:33:06;;;;;;;;;;;;;;;-2.19;70.53;99204.75;8396681;28;19975;-70
2022/04/03 05:37:06;;;;;;;;;;;;;;;-2.19;70.63;99194.16;8396564;28;20073;-70
2022/04/03 05:41:07;;;;;;;;;;;;;;;-2.21;71.31;99198.88;8393816;28;19977;-70
2022/04/03 05:45:09;;;;;;;;;;;;;;;-2.14;70.76;99212.81;8394062;28;19990;-70
2022/04/03 05:49:10;;;;;;;;;;;;;;;-2.03;71.07;99218.38;8395724;28;20355;-69
2022/04/03 05:53:10;;;;;;;;;;;;;;;-1.87;70.94;99217.75;8395553;28;20016;-71
2022/04/03 05:57:11;;;;;;;;;;;;;;;-1.94;70.75;99217.03;8396057;28;20040;-69
2022/04/03 06:01:12;;;;;;;;;;;;;;;-1.92;70.56;99225.56;8392859;28;20058;-70
2022/04/03 06:05:13;;;;;;;;;;;;;;;-1.84;70.76;99233.19;8393683;28;20045;-70
2022/04/03 06:09:14;;;;;;;;;;;;;;;-1.85;70.74;99231.59;8393896;28;20456;-70
2022/04/03 06:13:15;;;;;;;;;;;;;;;-1.74;70.66;99222.84;8394176;28;19977;-69
2022/04/03 06:17:15;;;;;;;;;;;;;;;-1.64;69.90;99233.72;8394602;28;19971;-70
2022/04/03 06:21:16;;;;;;;;;;;;;;;-1.66;69.70;99230.47;8394713;28;19971;-70
2022/04/03 06:25:18;;;;;;;;;;;;;;;-1.67;69.85;99250.03;8394102;28;19991;-69
2022/04/03 06:29:19;;;;;;;;;;;;;;;-1.70;70.03;99255.81;8375438;28;20390;-69
2022/04/03 06:33:20;;;;;;;;;;;;;;;-1.56;69.90;99249.28;8394195;28;20359;-70
2022/04/03 06:37:21;;;;;;;;;;;;;;;-1.40;69.36;99251.25;8393032;28;19967;-70
2022/04/03 06:41:23;;;;;;;;;;;;;;;-1.35;68.93;99250.56;8392542;28;19967;-70
2022/04/03 06:45:24;;;;;;;;;;;;;;;-1.35;68.71;99248.75;8392046;28;20281;-70
2022/04/03 06:49:24;;;;;;;;;;;;;;;-1.40;68.84;99261.84;8392631;28;20330;-70
2022/04/03 06:53:25;;;;;;;;;;;;;;;-1.56;68.90;99262.50;8406939;28;19920;-69
2022/04/03 06:57:26;;;;;;;;;;;;;;;-1.54;68.86;99271.06;8393414;28;19920;-70
2022/04/03 07:01:27;;;;;;;;;;;;;;;-1.43;69.04;99264.94;8400623;28;19991;-71
2022/04/03 07:05:28;;;;;;;;;;;;;;;-1.48;68.88;99275.41;8400818;28;20472;-70
2022/04/03 07:09:29;;;;;;;;;;;;;;;-1.38;69.13;99265.09;8401547;28;19975;-69
2022/04/03 07:13:29;;;;;;;;;;;;;;;-1.24;68.91;99259.56;8401749;28;20021;-71
2022/04/03 07:17:30;;;;;;;;;;;;;;;-1.10;68.29;99266.28;8400649;28;19971;-70
2022/04/03 07:21:31;;;;;;;;;;;;;;;-0.81;67.72;99275.97;8400643;28;19975;-70
2022/04/03 07:25:32;;;;;;;;;;;;;;;-0.60;67.50;99278.06;8415652;28;20596;-69
2022/04/03 07:29:33;;;;;;;;;;;;;;;-0.36;66.64;99280.66;8364992;28;19991;-69
2022/04/03 07:33:35;;;;;;;;;;;;;;;-0.19;66.13;99278.91;8400803;28;19975;-69
2022/04/03 07:37:36;;;;;;;;;;;;;;;0.04;66.05;99278.84;8399006;28;20415;-70
2022/04/03 07:41:37;;;;;;;;;;;;;;;0.75;63.71;99280.09;8397106;28;19971;-69
2022/04/03 07:45:38;;;;;;;;;;;;;;;1.40;62.53;99276.88;8400361;28;19990;-69
2022/04/03 07:49:39;;;;;;;;;;;;;;;1.52;59.11;99274.91;8400919;28;20049;-70
2022/04/03 07:53:39;;;;;;;;;;;;;;;1.36;58.85;99287.19;8399979;28;20511;-71
2022/04/03 07:57:41;;;;;;;;;;;;;;;1.16;59.48;99286.91;8397971;28;19975;-71
2022/04/03 08:01:41;;;;;;;;;;;;;;;1.15;58.50;99299.41;8399620;28;20007;-69
2022/04/03 08:05:42;;;;;;;;;;;;;;;0.90;58.60;99304.28;8396980;28;20090;-70
2022/04/03 08:09:43;;;;;;;;;;;;;;;0.93;58.92;99301.16;8397873;28;20388;-71
2022/04/03 08:13:45;;;;;;;;;;;;;;;1.11;57.63;99308.88;8399623;28;20445;-71
2022/04/03 08:17:46;;;;;;;;;;;;;;;1.33;57.25;99289.53;8380894;28;20325;-70
2022/04/03 08:21:47;;;;;;;;;;;;;;;1.11;56.08;99300.91;8379822;28;19982;-70
2022/04/03 08:25:48;;;;;;;;;;;;;;;0.97;56.87;99299.63;8398823;28;20015;-70
2022/04/03 08:29:49;;;;;;;;;;;;;;;1.00;54.54;99299.16;8398498;28;20007;-70
2022/04/03 08:33:51;;;;;;;;;;;;;;;1.10;55.10;99304.63;8398299;28;19967;-70
2022/04/03 08:37:52;;;;;;;;;;;;;;;1.37;52.68;99309.31;8397643;28;20471;-70
2022/04/03 08:41:54;;;;;;;;;;;;;;;1.48;51.03;99311.06;8398942;28;19967;-70
2022/04/03 08:45:55;;;;;;;;;;;;;;;1.57;48.94;99317.56;8396698;28;19968;-70
2022/04/03 08:49:57;;;;;;;;;;;;;;;1.73;48.60;99319.41;8412248;28;20338;-71
2022/04/03 08:53:58;;;;;;;;;;;;;;;1.88;48.74;99327.56;8396543;28;19971;-70
2022/04/03 08:57:59;;;;;;;;;;;;;;;2.08;48.24;99327.84;8397816;28;20381;-70
2022/04/03 09:02:00;;;;;;;;;;;;;;;2.30;46.33;99329.69;8397562;28;19991;-70
2022/04/03 09:06:10;;;;;;;;;;;;;;;2.39;44.42;99333.50;8396891;28;20026;-70
2022/04/03 09:10:17;;;;;;;;;;;;;;;2.39;44.91;99328.19;8395325;28;19975;-70
2022/04/03 09:14:19;;;;;;;;;;;;;;;2.15;43.02;99326.84;8396306;28;19979;-70
2022/04/03 09:18:20;;;;;;;;;;;;;;;1.96;41.26;99337.78;8395625;28;20330;-70
2022/04/03 09:22:28;;;;;;;;;;;;;;;2.56;40.67;99312.91;8395635;28;20085;-69
2022/04/03 09:26:33;;;;;;;;;;;;;;;3.09;38.38;99327.25;8393652;28;19971;-71
2022/04/03 09:30:44;;;;;;;;;;;;;;;3.17;39.26;99318.81;8396694;28;19971;-70
2022/04/03 09:34:46;;;;;;;;;;;;;;;3.34;39.03;99314.09;8396554;28;20066;-70
2022/04/03 09:38:47;;;;;;;;;;;;;;;3.21;39.46;99319.91;8396302;28;19978;-70
2022/04/03 09:42:50;;;;;;;;;;;;;;;3.16;39.86;99338.53;8394123;28;19996;-70
2022/04/03 09:47:10;;;;;;;;;;;;;;;3.08;41.11;99330.97;8395085;28;20391;-70
2022/04/03 09:51:12;;;;;;;;;;;;;;;3.06;41.41;99333.13;8396219;28;19999;-70
2022/04/03 09:55:13;;;;;;;;;;;;;;;3.08;41.77;99341.66;8396010;28;19969;-70
2022/04/03 09:59:15;;;;;;;;;;;;;;;3.00;43.12;99344.81;8395573;28;20405;-70
2022/04/03 10:03:16;;;;;;;;;;;;;;;3.31;43.72;99342.13;8394166;28;19982;-70
2022/04/03 10:07:17;;;;;;;;;;;;;;;3.43;43.86;99338.47;8395272;28;19973;-71
2022/04/03 10:11:18;;;;;;;;;;;;;;;3.44;43.67;99346.22;8395220;28;20352;-70
2022/04/03 10:15:18;;;;;;;;;;;;;;;3.93;43.10;99332.63;8395523;28;20295;-71
2022/04/03 10:19:22;;;;;;;;;;;;;;;4.05;41.46;99347.41;8390943;28;20284;-71
2022/04/03 10:23:22;;;;;;;;;;;;;;;4.33;41.51;99327.47;8390927;28;20001;-71
2022/04/03 10:27:29;;;;;;;;;;;;;;;4.19;41.36;99337.03;8391574;28;20272;-71
2022/04/03 10:31:30;;;;;;;;;;;;;;;3.85;41.97;99338.47;8357615;28;20027;-71
2022/04/03 10:35:31;;;;;;;;;;;;;;;3.64;42.54;99335.69;8378852;28;19941;-71
2022/04/03 10:39:32;;;;;;;;;;;;;;;3.33;43.32;99339.22;8359881;28;20377;-72
2022/04/03 10:43:36;;;;;;;;;;;;;;;3.03;43.75;99341.63;8324588;28;19998;-70
2022/04/03 10:47:41;;;;;;;;;;;;;;;3.02;44.14;99353.34;8357854;28;19979;-70
2022/04/03 10:51:42;;;;;;;;;;;;;;;3.11;44.14;99351.84;8393426;28;20074;-71
2022/04/03 10:55:43;;;;;;;;;;;;;;;3.34;43.13;99319.44;8386383;28;20425;-71
2022/04/03 10:59:43;;;;;;;;;;;;;;;3.65;43.05;99337.28;8390254;28;19992;-70
2022/04/03 11:03:51;;;;;;;;;;;;;;;3.85;42.63;99325.13;8394126;28;20017;-70
2022/04/03 11:07:53;;;;;;;;;;;;;;;4.51;40.74;99324.31;8391837;28;19994;-70
2022/04/03 11:11:55;;;;;;;;;;;;;;;4.31;40.27;99329.59;8394571;28;19983;-71
2022/04/03 11:15:56;;;;;;;;;;;;;;;3.92;40.21;99331.00;8394147;28;20021;-70
2022/04/03 11:19:58;;;;;;;;;;;;;;;3.64;41.15;99327.69;8394316;28;20419;-71
2022/04/03 11:24:01;;;;;;;;;;;;;;;3.64;41.69;99330.34;8394377;28;19969;-71
2022/04/03 11:28:02;;;;;;;;;;;;;;;3.27;42.04;99334.91;8394030;28;19960;-71
2022/04/03 11:32:07;;;;;;;;;;;;;;;3.50;42.22;99337.19;8375075;28;19976;-71
2022/04/03 11:36:10;;;;;;;;;;;;;;;3.63;42.32;99334.06;8391817;28;19977;-71
2022/04/03 11:40:12;;;;;;;;;;;;;;;3.67;41.36;99329.81;8394330;28;20425;-71
2022/04/03 11:44:15;;;;;;;;;;;;;;;4.00;41.27;99322.53;8393589;28;19977;-71
2022/04/03 11:48:17;;;;;;;;;;;;;;;4.63;40.62;99332.91;8399890;28;19969;-70
2022/04/03 11:52:18;;;;;;;;;;;;;;;4.55;38.27;99320.03;8399645;28;19975;-71
2022/04/03 11:56:20;;;;;;;;;;;;;;;4.41;38.13;99312.78;8399362;28;20310;-70
2022/04/03 12:00:22;;;;;;;;;;;;;;;4.38;38.07;99313.31;8399680;28;20033;-70
2022/04/03 12:04:23;;;;;;;;;;;;;;;4.51;38.02;99318.97;8399438;28;19966;-70
2022/04/03 12:08:36;;;;;;;;;;;;;;;4.53;37.56;99311.47;8399151;28;19975;-70
2022/04/03 12:12:36;;;;;;;;;;;;;;;4.29;37.63;99321.03;8398474;28;20434;-72
2022/04/03 12:16:38;;;;;;;;;;;;;;;4.34;37.78;99307.66;8399132;28;20433;-71
2022/04/03 12:20:39;;;;;;;;;;;;;;;4.63;37.55;99306.16;8396276;28;19971;-71
2022/04/03 12:24:40;;;;;;;;;;;;;;;4.70;36.86;99299.75;8397651;28;19983;-71
2022/04/03 12:28:42;;;;;;;;;;;;;;;4.72;36.34;99302.94;8398797;28;20544;-71
2022/04/03 12:32:43;;;;;;;;;;;;;;;4.61;36.47;99297.56;8398459;28;19967;-70
2022/04/03 12:36:45;;;;;;;;;;;;;;;4.56;36.25;99289.53;8397979;28;19977;-70
2022/04/03 12:40:48;;;;;;;;;;;;;;;4.56;36.07;99294.91;8397641;28;19975;-70
2022/04/03 12:44:49;;;;;;;;;;;;;;;4.82;36.37;99297.59;8397501;28;20031;-71
2022/04/03 12:48:51;;;;;;;;;;;;;;;5.01;35.63;99285.31;8397637;28;20396;-71
2022/04/03 12:52:54;;;;;;;;;;;;;;;5.03;35.03;99293.88;8384046;28;19975;-70
2022/04/03 13:01:14;;;;;;;;;;;;;;;4.90;35.37;99283.72;8397543;28;20037;-70
2022/04/03 13:05:15;;;;;;;;;;;;;;;4.98;34.72;99286.63;8411635;28;19983;-70
2022/04/03 13:09:18;;;;;;;;;;;;;;;4.99;34.53;99287.44;8396956;28;19961;-70
2022/04/03 13:13:23;;;;;;;;;;;;;;;5.18;35.38;99275.16;8396971;28;20049;-70
2022/04/03 13:17:24;;;;;;;;;;;;;;;5.10;34.89;99289.06;8396552;28;20344;-70
2022/04/03 13:21:25;;;;;;;;;;;;;;;5.09;34.17;99276.75;8411372;28;19964;-70
2022/04/03 13:25:26;;;;;;;;;;;;;;;5.13;33.94;99277.81;8365724;28;20007;-70
2022/04/03 13:29:28;;;;;;;;;;;;;;;5.17;33.56;99278.91;8394544;28;19975;-71
2022/04/03 13:33:29;;;;;;;;;;;;;;;5.31;33.86;99269.22;8395483;28;20021;-70
2022/04/03 13:37:30;;;;;;;;;;;;;;;6.05;32.10;99279.22;8396444;28;20064;-70
2022/04/03 13:41:34;;;;;;;;;;;;;;;6.09;32.17;99280.28;8396089;28;20453;-70
2022/04/03 13:45:57;;;;;;;;;;;;;;;6.01;31.34;99278.19;8395851;28;20437;-71
2022/04/03 13:49:58;;;;;;;;;;;;;;;6.06;31.19;99270.13;8394870;28;20020;-71
2022/04/03 13:54:00;;;;;;;;;;;;;;;5.78;32.41;99262.69;8394951;28;20460;-70
2022/04/03 13:58:01;;;;;;;;;;;;;;;5.73;32.82;99265.38;8396224;28;19966;-70
2022/04/03 14:02:03;;;;;;;;;;;;;;;5.49;33.29;99271.34;8395390;28;20416;-70
2022/04/03 14:06:04;;;;;;;;;;;;;;;5.61;33.14;99263.00;8359812;28;19974;-71
2022/04/03 14:10:05;;;;;;;;;;;;;;;5.45;33.25;99269.47;8360331;28;19994;-70
2022/04/03 14:14:06;;;;;;;;;;;;;;;5.22;33.31;99256.66;8396471;28;19943;-71
2022/04/03 14:18:07;;;;;;;;;;;;;;;5.63;32.22;99255.50;8395234;28;19989;-71
2022/04/03 14:22:08;;;;;;;;;;;;;;;5.80;32.50;99265.91;8394326;28;21811;-71
2022/04/03 14:26:09;;;;;;;;;;;;;;;5.82;31.44;99255.69;8395472;28;19966;-71
2022/04/03 14:30:10;;;;;;;;;;;;;;;7.07;29.58;99253.38;8394358;28;19964;-71
2022/04/03 14:34:13;;;;;;;;;;;;;;;6.93;29.09;99247.00;8395567;28;20420;-71
2022/04/03 14:38:18;;;;;;;;;;;;;;;6.25;31.17;99257.69;8395379;28;20306;-70
2022/04/03 14:42:22;;;;;;;;;;;;;;;6.51;31.37;99260.22;8395031;28;19924;-70
2022/04/03 14:46:23;;;;;;;;;;;;;;;8.49;29.88;99259.81;8393376;28;20292;-70
2022/04/03 14:50:25;;;;;;;;;;;;;;;10.19;27.33;99250.91;8394292;28;20261;-72
2022/04/03 14:54:26;;;;;;;;;;;;;;;12.03;24.50;99244.16;8384125;28;19920;-70
2022/04/03 14:58:28;;;;;;;;;;;;;;;11.04;25.72;99239.22;8391387;28;19924;-70
2022/04/03 15:02:30;;;;;;;;;;;;;;;9.48;27.13;99252.28;8394609;28;19924;-70
2022/04/03 15:06:31;;;;;;;;;;;;;;;8.35;27.55;99250.88;8394533;28;20223;-71
2022/04/03 15:10:31;;;;;;;;;;;;;;;7.29;28.69;99247.53;8392224;28;20282;-71
2022/04/03 15:14:32;;;;;;;;;;;;;;;6.47;30.09;99259.16;8392921;28;19921;-71
2022/04/03 15:18:36;;;;;;;;;;;;;;;6.11;30.51;99261.25;8358744;28;19963;-70
2022/04/03 15:22:37;;;;;;;;;;;;;;;5.85;31.56;99257.84;8399152;28;19925;-70
2022/04/03 15:26:37;;;;;;;;;;;;;;;5.45;32.25;99264.09;8400796;28;20007;-70
2022/04/03 15:30:38;;;;;;;;;;;;;;;5.15;32.65;99243.53;8398388;28;19981;-70
2022/04/03 15:34:39;;;;;;;;;;;;;;;4.99;33.39;99258.00;8400085;28;20334;-70
2022/04/03 15:38:40;;;;;;;;;;;;;;;4.98;33.75;99253.72;8399698;28;20340;-70
2022/04/03 15:42:41;;;;;;;;;;;;;;;4.90;34.03;99251.59;8398364;28;19928;-71
2022/04/03 15:46:42;;;;;;;;;;;;;;;4.81;34.18;99258.56;8399090;28;20316;-71
2022/04/03 15:50:43;;;;;;;;;;;;;;;4.64;34.57;99254.25;8397323;28;19920;-70
2022/04/03 15:54:43;;;;;;;;;;;;;;;4.63;34.56;99258.00;8400147;28;20049;-71
2022/04/03 15:58:44;;;;;;;;;;;;;;;4.55;34.44;99261.19;8398755;28;19988;-71
2022/04/03 16:02:46;;;;;;;;;;;;;;;4.37;34.54;99269.72;8399484;28;19921;-71
2022/04/03 16:06:47;;;;;;;;;;;;;;;4.27;35.18;99272.38;8397072;28;19928;-70
2022/04/03 16:10:48;;;;;;;;;;;;;;;4.21;35.58;99270.75;8399815;28;20433;-70
2022/04/03 16:14:49;;;;;;;;;;;;;;;4.16;35.54;99274.22;8399343;28;19951;-70
2022/04/03 16:18:50;;;;;;;;;;;;;;;4.16;35.63;99263.53;8399076;28;19927;-70
2022/04/03 16:22:51;;;;;;;;;;;;;;;4.06;36.14;99268.03;8398354;28;19920;-71
2022/04/03 16:26:54;;;;;;;;;;;;;;;4.13;36.78;99257.88;8379403;28;19924;-71
2022/04/03 16:30:55;;;;;;;;;;;;;;;3.97;37.53;99261.56;8398241;28;20019;-70
2022/04/03 16:34:59;;;;;;;;;;;;;;;3.87;38.36;99270.34;8397658;28;19950;-71
2022/04/03 16:39:00;;;;;;;;;;;;;;;3.83;38.80;99280.75;8398277;28;19921;-70
2022/04/03 16:43:01;;;;;;;;;;;;;;;3.66;39.08;99274.78;8397300;28;20219;-70
2022/04/03 16:47:01;;;;;;;;;;;;;;;3.64;39.27;99271.59;8412624;28;20540;-71
2022/04/03 16:51:03;;;;;;;;;;;;;;;3.48;39.50;99272.56;8393339;28;19931;-70
2022/04/03 16:55:04;;;;;;;;;;;;;;;3.24;39.89;99271.34;8397262;28;19920;-71
2022/04/03 16:59:06;;;;;;;;;;;;;;;3.00;40.72;99280.78;8397850;28;20035;-70
2022/04/03 17:03:08;;;;;;;;;;;;;;;2.68;41.49;99278.91;8397484;28;19924;-70
2022/04/03 17:07:09;;;;;;;;;;;;;;;2.61;41.84;99272.97;8396980;28;19952;-70
2022/04/03 17:11:10;;;;;;;;;;;;;;;2.42;42.60;99282.38;8396996;28;19921;-70
2022/04/03 17:15:12;;;;;;;;;;;;;;;2.33;43.13;99292.66;8396913;28;20046;-70
2022/04/03 17:19:12;;;;;;;;;;;;;;;2.33;42.88;99291.84;8394234;28;20022;-71
2022/04/03 17:23:14;;;;;;;;;;;;;;;2.21;43.23;99293.88;8396007;28;20368;-70
2022/04/03 17:27:15;;;;;;;;;;;;;;;2.23;43.92;99292.56;8396734;28;19928;-70
2022/04/03 17:31:16;;;;;;;;;;;;;;;2.05;44.07;99296.38;8376879;28;19950;-70
2022/04/03 17:35:17;;;;;;;;;;;;;;;1.84;44.87;99305.16;8395709;28;20288;-71
2022/04/03 17:39:19;;;;;;;;;;;;;;;1.88;45.02;99300.13;8376882;28;19920;-70
2022/04/03 17:43:19;;;;;;;;;;;;;;;1.66;45.63;99297.47;8409210;28;19925;-70
2022/04/03 17:47:20;;;;;;;;;;;;;;;1.41;45.95;99299.78;8395715;28;19927;-70
2022/04/03 17:51:21;;;;;;;;;;;;;;;1.34;46.49;99301.78;8392646;28;19924;-71
2022/04/03 17:55:22;;;;;;;;;;;;;;;1.23;47.27;99304.28;8395053;28;19974;-70
2022/04/03 17:59:23;;;;;;;;;;;;;;;1.22;47.58;99310.66;8396186;28;20356;-70
2022/04/03 18:03:25;;;;;;;;;;;;;;;1.22;48.26;99313.31;8395418;28;20341;-70
2022/04/03 18:07:26;;;;;;;;;;;;;;;1.22;48.33;99310.66;8393737;28;19924;-70
2022/04/03 18:11:28;;;;;;;;;;;;;;;1.18;49.48;99309.53;8392367;28;19920;-70
2022/04/03 18:15:29;;;;;;;;;;;;;;;1.15;49.95;99307.38;8392163;28;19928;-70
2022/04/03 18:19:30;;;;;;;;;;;;;;;1.09;50.97;99318.97;8395278;28;19921;-70
2022/04/03 18:23:33;;;;;;;;;;;;;;;1.08;50.89;99306.72;8395041;28;20364;-70
2022/04/03 18:27:35;;;;;;;;;;;;;;;1.15;50.40;99312.69;8394527;28;19926;-70
2022/04/03 18:31:36;;;;;;;;;;;;;;;1.22;49.53;99304.53;8395041;28;19920;-70
2022/04/03 18:35:39;;;;;;;;;;;;;;;1.24;49.54;99308.56;8394915;28;19940;-70
2022/04/03 18:39:45;;;;;;;;;;;;;;;1.24;49.15;99311.22;8394662;28;19920;-70
2022/04/03 18:43:46;;;;;;;;;;;;;;;1.16;49.75;99308.97;8394862;28;20273;-71
2022/04/03 18:47:47;;;;;;;;;;;;;;;1.11;49.71;99316.88;8394690;28;19946;-70
2022/04/03 18:51:50;;;;;;;;;;;;;;;1.04;49.61;99313.59;8392325;28;19924;-70
2022/04/03 18:55:51;;;;;;;;;;;;;;;0.94;49.13;99316.06;8399712;28;19920;-70
2022/04/03 18:59:53;;;;;;;;;;;;;;;0.93;49.41;99325.09;8399419;28;20034;-71
2022/04/03 19:03:54;;;;;;;;;;;;;;;0.92;49.53;99318.16;8399250;28;20453;-70
2022/04/03 19:08:01;;;;;;;;;;;;;;;0.91;49.74;99319.19;8415197;28;19924;-70
2022/04/03 19:12:03;;;;;;;;;;;;;;;0.95;49.50;99312.38;8397648;28;19964;-69
2022/04/03 19:16:05;;;;;;;;;;;;;;;0.99;49.68;99313.50;8376435;28;20019;-70
2022/04/03 19:20:08;;;;;;;;;;;;;;;1.02;49.90;99313.00;8400166;28;19966;-70
2022/04/03 19:24:13;;;;;;;;;;;;;;;1.05;50.04;99317.84;8399790;28;19964;-70
2022/04/03 19:28:14;;;;;;;;;;;;;;;1.10;49.73;99309.97;8403605;28;20606;-70
2022/04/03 19:32:16;;;;;;;;;;;;;;;1.17;49.51;99305.25;8399583;28;19924;-70
2022/04/03 19:36:17;;;;;;;;;;;;;;;1.20;49.43;99307.47;8403919;28;19921;-70
2022/04/03 19:40:19;;;;;;;;;;;;;;;1.23;49.71;99309.63;8398216;28;19920;-70
2022/04/03 19:44:22;;;;;;;;;;;;;;;1.22;49.70;99313.31;8396073;28;19990;-70
2022/04/03 19:48:23;;;;;;;;;;;;;;;1.34;49.73;99309.75;8365733;28;19927;-70
2022/04/03 19:52:24;;;;;;;;;;;;;;;1.36;49.70;99307.69;8397492;28;19920;-70
2022/04/03 19:56:25;;;;;;;;;;;;;;;1.39;49.84;99301.84;8360889;28;19928;-70
2022/04/03 20:00:27;;;;;;;;;;;;;;;1.24;50.20;99310.44;8394886;28;20306;-70
2022/04/03 20:04:28;;;;;;;;;;;;;;;1.13;50.41;99314.78;8397010;28;19927;-69
2022/04/03 20:08:29;;;;;;;;;;;;;;;1.02;50.57;99307.69;8396331;28;20277;-69
2022/04/03 20:12:31;;;;;;;;;;;;;;;0.83;51.47;99315.09;8396471;28;20372;-70
2022/04/03 20:16:33;;;;;;;;;;;;;;;0.68;51.69;99319.34;8377745;28;20365;-70
2022/04/03 20:20:37;;;;;;;;;;;;;;;0.46;52.46;99313.09;8380167;28;19920;-71
2022/04/03 20:24:38;;;;;;;;;;;;;;;0.31;53.16;99306.47;8396807;28;20418;-69
2022/04/03 20:28:39;;;;;;;;;;;;;;;0.28;54.15;99312.22;8396335;28;19921;-69
2022/04/03 20:32:40;;;;;;;;;;;;;;;0.18;53.98;99314.69;8398028;28;19942;-70
2022/04/03 20:36:43;;;;;;;;;;;;;;;0.12;54.64;99315.63;8396428;28;19920;-70
2022/04/03 20:40:44;;;;;;;;;;;;;;;0.00;54.87;99314.88;8398874;28;19921;-70
2022/04/03 20:44:46;;;;;;;;;;;;;;;-0.01;54.77;99318.56;8397347;28;19983;-70
2022/04/03 20:48:47;;;;;;;;;;;;;;;-0.13;55.29;99315.13;8398021;28;19924;-70
2022/04/03 20:52:48;;;;;;;;;;;;;;;0.02;55.84;99312.78;8397159;28;19963;-70
2022/04/03 20:56:50;;;;;;;;;;;;;;;0.07;55.73;99310.22;8398162;28;20342;-70
2022/04/03 21:00:51;;;;;;;;;;;;;;;0.19;55.24;99313.66;8397607;28;19955;-69
2022/04/03 21:04:55;;;;;;;;;;;;;;;0.20;55.57;99304.66;8397026;28;20441;-69
2022/04/03 21:08:56;;;;;;;;;;;;;;;0.30;55.58;99304.84;8397349;28;19931;-70
2022/04/03 21:12:57;;;;;;;;;;;;;;;0.28;55.60;99306.91;8377769;28;20391;-70